Time;durP1;ratioP1;P1;durP2;ratioP2;P2;SDS_P1;SDS_P2;PMS_P1;PMS_P2;Temp;Humidity;BMP_temperature;BMP_pressure;BME280_temperature;BME280_humidity;BME280_pressure;Samples;Min_cycle;Max_cycle;Signal;HPM_P1;HPM_P2
2022/10/10 00:01:07;;;;;;;;;;;;;;;-142.75;100.00;77511.34;5072534;28;19912;-67
2022/10/10 00:03:32;;;;;;;;;;;;;;;-142.75;100.00;77501.50;5072273;28;19938;-67
2022/10/10 00:05:58;;;;;;;;;;;;;;;-142.75;100.00;77495.59;5072389;28;19916;-67
2022/10/10 00:08:23;;;;;;;;;;;;;;;-142.75;100.00;77497.56;5071895;28;19917;-67
2022/10/10 00:10:48;;;;;;;;;;;;;;;-142.75;100.00;77495.59;5054224;28;20291;-67
2022/10/10 00:13:13;;;;;;;;;;;;;;;-142.75;100.00;77493.63;5072099;28;19912;-67
2022/10/10 00:15:38;;;;;;;;;;;;;;;-142.75;100.00;77489.69;5072133;28;19917;-67
2022/10/10 00:18:04;;;;;;;;;;;;;;;-142.75;100.00;77487.72;5071958;28;20385;-67
2022/10/10 00:20:29;;;;;;;;;;;;;;;-142.75;100.00;77481.81;5054203;28;20430;-67
2022/10/10 00:22:54;;;;;;;;;;;;;;;-142.75;100.00;77475.91;5072122;28;19912;-67
2022/10/10 00:25:20;;;;;;;;;;;;;;;-142.75;100.00;77468.03;5072084;28;19919;-67
2022/10/10 00:27:45;;;;;;;;;;;;;;;-142.75;100.00;77460.13;5071767;28;19961;-67
2022/10/10 00:30:10;;;;;;;;;;;;;;;-142.75;100.00;77454.25;5072015;28;20374;-67
2022/10/10 00:32:36;;;;;;;;;;;;;;;-142.75;100.00;77448.34;5071880;28;20370;-67
2022/10/10 00:35:02;;;;;;;;;;;;;;;-142.75;100.00;77440.44;5071872;28;19916;-67
2022/10/10 00:37:27;;;;;;;;;;;;;;;-142.75;100.00;77436.50;5073805;28;20011;-67
2022/10/10 00:39:52;;;;;;;;;;;;;;;-142.75;100.00;77448.34;5074623;28;19947;-67
2022/10/10 00:42:18;;;;;;;;;;;;;;;-142.75;100.00;77454.25;5075880;28;20623;-67
2022/10/10 00:44:44;;;;;;;;;;;;;;;-142.75;100.00;77456.22;5075960;28;19908;-67
2022/10/10 00:47:10;;;;;;;;;;;;;;;-142.75;100.00;77448.34;5075497;28;20443;-67
2022/10/10 00:49:37;;;;;;;;;;;;;;;-142.75;100.00;77452.25;5075841;28;19913;-67
2022/10/10 00:52:04;;;;;;;;;;;;;;;-142.75;100.00;77452.25;5075694;28;19913;-66
2022/10/10 00:54:30;;;;;;;;;;;;;;;-142.75;100.00;77460.13;5075570;28;19961;-67
2022/10/10 00:56:58;;;;;;;;;;;;;;;-142.75;100.00;77464.09;5075261;28;19917;-67
2022/10/10 00:59:25;;;;;;;;;;;;;;;-142.75;100.00;77464.09;5075592;28;20285;-67
2022/10/10 01:01:50;;;;;;;;;;;;;;;-142.75;100.00;77468.03;5075537;28;19919;-67
2022/10/10 01:04:29;;;;;;;;;;;;;;;-142.75;100.00;77468.03;5075493;28;19912;-67
2022/10/10 01:06:54;;;;;;;;;;;;;;;-142.75;100.00;77470.00;5075148;28;19955;-67
2022/10/10 01:09:19;;;;;;;;;;;;;;;-142.75;100.00;77479.84;5075332;28;19955;-67
2022/10/10 01:11:51;;;;;;;;;;;;;;;-142.75;100.00;77483.78;5075434;28;19916;-67
2022/10/10 01:14:19;;;;;;;;;;;;;;;-142.75;100.00;77495.59;5075855;28;20293;-67
2022/10/10 01:16:56;;;;;;;;;;;;;;;-142.75;100.00;77497.56;5074969;28;19916;-66
2022/10/10 01:19:24;;;;;;;;;;;;;;;-142.75;100.00;77511.34;5075511;28;20378;-67
2022/10/10 01:22:00;;;;;;;;;;;;;;;-142.75;100.00;77513.31;5075109;28;19919;-67
2022/10/10 01:24:31;;;;;;;;;;;;;;;-142.75;100.00;77507.41;5075184;28;20271;-67
2022/10/10 01:27:07;;;;;;;;;;;;;;;-142.75;100.00;77503.47;5074774;28;19917;-67
2022/10/10 01:29:52;;;;;;;;;;;;;;;-142.75;100.00;77507.41;5075042;28;19919;-67
2022/10/10 01:32:36;;;;;;;;;;;;;;;-142.75;100.00;77499.53;5057013;28;20267;-67
2022/10/10 01:35:13;;;;;;;;;;;;;;;-142.75;100.00;77483.78;5074950;28;19920;-67
2022/10/10 01:37:44;;;;;;;;;;;;;;;-142.75;100.00;77495.59;5074576;28;19916;-67
2022/10/10 01:40:20;;;;;;;;;;;;;;;-142.75;100.00;77475.91;5074953;28;19922;-67
2022/10/10 01:42:50;;;;;;;;;;;;;;;-142.75;100.00;77471.97;5073104;28;20050;-67
2022/10/10 01:45:15;;;;;;;;;;;;;;;-142.75;100.00;77471.97;5074797;28;20301;-67
2022/10/10 01:47:41;;;;;;;;;;;;;;;-142.75;100.00;77470.00;5073922;28;19912;-67
2022/10/10 01:50:11;;;;;;;;;;;;;;;-142.75;100.00;77456.22;5074746;28;20448;-67
2022/10/10 01:52:36;;;;;;;;;;;;;;;-142.75;100.00;77450.28;5056627;28;19952;-67
2022/10/10 01:55:09;;;;;;;;;;;;;;;-142.75;100.00;77446.34;5074414;28;19978;-67
2022/10/10 01:57:52;;;;;;;;;;;;;;;-142.75;100.00;77450.28;5074455;28;19920;-67
2022/10/10 02:00:18;;;;;;;;;;;;;;;-142.75;100.00;77452.25;5056291;28;19912;-67
2022/10/10 02:03:01;;;;;;;;;;;;;;;-142.75;100.00;77444.38;5056738;28;19924;-68
2022/10/10 02:05:46;;;;;;;;;;;;;;;-142.75;100.00;77446.34;5074471;28;19913;-67
2022/10/10 02:08:41;;;;;;;;;;;;;;;-142.75;100.00;77448.34;5059757;28;19919;-67
2022/10/10 02:11:09;;;;;;;;;;;;;;;-142.75;100.00;77450.28;5056694;28;20297;-67
2022/10/10 02:13:37;;;;;;;;;;;;;;;-142.75;100.00;77446.34;5074152;28;19913;-67
2022/10/10 02:16:04;;;;;;;;;;;;;;;-142.75;100.00;77440.44;5074043;28;19916;-67
2022/10/10 02:18:32;;;;;;;;;;;;;;;-142.75;100.00;77436.50;5055839;28;19932;-67
2022/10/10 02:21:00;;;;;;;;;;;;;;;-142.75;100.00;77438.47;5074070;28;19912;-67
2022/10/10 02:23:25;;;;;;;;;;;;;;;-142.75;100.00;77434.53;5074062;28;20301;-67
2022/10/10 02:25:52;;;;;;;;;;;;;;;-142.75;100.00;77428.63;5074019;28;20003;-67
2022/10/10 02:28:27;;;;;;;;;;;;;;;-142.75;100.00;77426.66;5073704;28;20001;-67
2022/10/10 02:30:55;;;;;;;;;;;;;;;-142.75;100.00;77428.63;5073907;28;19920;-67
2022/10/10 02:33:24;;;;;;;;;;;;;;;-142.75;100.00;77428.63;5073602;28;19962;-67
2022/10/10 02:35:52;;;;;;;;;;;;;;;-142.75;100.00;77422.72;5055805;28;19921;-67
2022/10/10 02:38:18;;;;;;;;;;;;;;;-142.75;100.00;77428.63;5073447;28;20011;-67
2022/10/10 02:40:44;;;;;;;;;;;;;;;-142.75;100.00;77422.72;5073608;28;19955;-67
2022/10/10 02:43:11;;;;;;;;;;;;;;;-142.75;100.00;77424.69;5073470;28;19913;-67
2022/10/10 02:45:38;;;;;;;;;;;;;;;-142.75;100.00;77416.81;5055596;28;19956;-67
2022/10/10 02:48:03;;;;;;;;;;;;;;;-142.75;100.00;77424.69;5073222;28;19958;-66
2022/10/10 02:50:29;;;;;;;;;;;;;;;-142.75;100.00;77424.69;5073497;28;19916;-67
2022/10/10 02:52:54;;;;;;;;;;;;;;;-142.75;100.00;77428.63;5073380;28;19958;-66
2022/10/10 02:55:20;;;;;;;;;;;;;;;-142.75;100.00;77420.75;5073363;28;20019;-67
2022/10/10 02:57:45;;;;;;;;;;;;;;;-142.75;100.00;77401.06;5072941;28;20382;-67
2022/10/10 03:00:10;;;;;;;;;;;;;;;-142.75;100.00;77403.03;5072479;28;19912;-67
2022/10/10 03:02:36;;;;;;;;;;;;;;;-142.75;100.00;77397.13;5055239;28;19920;-67
2022/10/10 03:05:01;;;;;;;;;;;;;;;-142.75;100.00;77401.06;5055226;28;19912;-66
2022/10/10 03:07:26;;;;;;;;;;;;;;;-142.75;100.00;77393.19;5072801;28;19934;-67
2022/10/10 03:09:51;;;;;;;;;;;;;;;-142.75;100.00;77399.09;5055176;28;19913;-67
2022/10/10 03:12:17;;;;;;;;;;;;;;;-142.75;100.00;77395.16;5055053;28;19912;-67
2022/10/10 03:14:42;;;;;;;;;;;;;;;-142.75;100.00;77393.19;5072870;28;19962;-67
2022/10/10 03:17:07;;;;;;;;;;;;;;;-142.75;100.00;77389.25;5072753;28;19912;-67
2022/10/10 03:19:33;;;;;;;;;;;;;;;-142.75;100.00;77403.03;5072885;28;19916;-66
2022/10/10 03:21:58;;;;;;;;;;;;;;;-142.75;100.00;77389.25;5072817;28;19995;-66
2022/10/10 03:24:23;;;;;;;;;;;;;;;-142.75;100.00;77399.09;5072844;28;19919;-67
2022/10/10 03:26:49;;;;;;;;;;;;;;;-142.75;100.00;77385.31;5072360;28;19917;-67
2022/10/10 03:29:14;;;;;;;;;;;;;;;-142.75;100.00;77393.19;5072765;28;20296;-67
2022/10/10 03:31:39;;;;;;;;;;;;;;;-142.75;100.00;77389.25;5072725;28;20437;-67
2022/10/10 03:34:04;;;;;;;;;;;;;;;-142.75;100.00;77383.34;5101502;22;19928;-69
2022/10/10 03:36:30;;;;;;;;;;;;;;;-142.75;100.00;77377.44;5073104;28;20042;-69
2022/10/10 03:38:55;;;;;;;;;;;;;;;-142.75;100.00;77381.38;5091727;28;19923;-70
2022/10/10 03:41:20;;;;;;;;;;;;;;;-142.75;100.00;77383.34;5092804;28;20408;-69
2022/10/10 03:43:45;;;;;;;;;;;;;;;-142.75;100.00;77373.50;5092591;28;20003;-69
2022/10/10 03:46:11;;;;;;;;;;;;;;;-142.75;100.00;77385.31;5074557;28;19912;-69
2022/10/10 03:48:36;;;;;;;;;;;;;;;-142.75;100.00;77385.31;5092542;28;20399;-68
2022/10/10 03:51:01;;;;;;;;;;;;;;;-142.75;100.00;77385.31;5092764;28;20370;-68
2022/10/10 03:53:27;;;;;;;;;;;;;;;-142.75;100.00;77389.25;5091142;28;19920;-70
2022/10/10 03:55:53;;;;;;;;;;;;;;;-142.75;100.00;77389.25;5092641;28;20365;-68
2022/10/10 03:58:18;;;;;;;;;;;;;;;-142.75;100.00;77395.16;5092187;28;19919;-69
2022/10/10 04:00:43;;;;;;;;;;;;;;;-142.75;100.00;77393.19;5092542;28;20524;-68
2022/10/10 04:03:09;;;;;;;;;;;;;;;-142.75;100.00;77389.25;5092382;28;19916;-69
2022/10/10 04:05:36;;;;;;;;;;;;;;;-142.75;100.00;77399.09;5092468;28;19938;-68
2022/10/10 04:08:02;;;;;;;;;;;;;;;-142.75;100.00;77401.06;5092160;28;19912;-68
2022/10/10 04:10:27;;;;;;;;;;;;;;;-142.75;100.00;77397.13;5074112;28;19912;-68
2022/10/10 04:12:52;;;;;;;;;;;;;;;-142.75;100.00;77401.06;5092323;28;20400;-68
2022/10/10 04:15:17;;;;;;;;;;;;;;;-142.75;100.00;77401.06;5092207;28;19920;-68
2022/10/10 04:17:42;;;;;;;;;;;;;;;-142.75;100.00;77408.94;5073981;28;20277;-68
2022/10/10 04:20:08;;;;;;;;;;;;;;;-142.75;100.00;77416.81;5092279;28;20038;-69
2022/10/10 04:22:33;;;;;;;;;;;;;;;-142.75;100.00;77405.00;5092317;28;19912;-68
2022/10/10 04:24:58;;;;;;;;;;;;;;;-142.75;100.00;77408.94;5092140;28;19919;-69
2022/10/10 04:27:23;;;;;;;;;;;;;;;-142.75;100.00;77410.91;5091873;28;19919;-68
2022/10/10 04:29:49;;;;;;;;;;;;;;;-142.75;100.00;77428.63;5074156;28;20479;-68
2022/10/10 04:32:14;;;;;;;;;;;;;;;-142.75;100.00;77426.66;5084694;28;19982;-68
2022/10/10 04:34:39;;;;;;;;;;;;;;;-142.75;100.00;77432.56;5071677;28;20033;-69
2022/10/10 04:37:04;;;;;;;;;;;;;;;-142.75;100.00;77448.34;5071628;28;19916;-69
2022/10/10 04:39:29;;;;;;;;;;;;;;;-142.75;100.00;77450.28;5071895;28;19959;-68
2022/10/10 04:41:55;;;;;;;;;;;;;;;-142.75;100.00;77452.25;5053839;28;20022;-68
2022/10/10 04:44:20;;;;;;;;;;;;;;;-142.75;100.00;77446.34;5053791;28;19928;-68
2022/10/10 04:46:45;;;;;;;;;;;;;;;-142.75;100.00;77440.44;5053575;28;20404;-70
2022/10/10 04:49:11;;;;;;;;;;;;;;;-142.75;100.00;77446.34;5053855;28;19912;-68
2022/10/10 04:51:36;;;;;;;;;;;;;;;-142.75;100.00;77448.34;5071792;28;19919;-69
2022/10/10 04:54:01;;;;;;;;;;;;;;;-142.75;100.00;77444.38;5071796;28;19959;-68
2022/10/10 04:56:27;;;;;;;;;;;;;;;-142.75;100.00;77448.34;5071465;28;19916;-69
2022/10/10 04:58:52;;;;;;;;;;;;;;;-142.75;100.00;77446.34;5053578;28;19912;-68
2022/10/10 05:01:17;;;;;;;;;;;;;;;-142.75;100.00;77436.50;5053657;28;19920;-68
2022/10/10 05:03:42;;;;;;;;;;;;;;;-142.75;100.00;77442.41;5071585;28;19912;-68
2022/10/10 05:06:07;;;;;;;;;;;;;;;-142.75;100.00;77434.53;5053794;28;19913;-69
2022/10/10 05:08:33;;;;;;;;;;;;;;;-142.75;100.00;77432.56;5071391;28;19960;-68
2022/10/10 05:10:58;;;;;;;;;;;;;;;-142.75;100.00;77436.50;5071605;28;20457;-68
2022/10/10 05:13:23;;;;;;;;;;;;;;;-142.75;100.00;77428.63;5053496;28;20386;-68
2022/10/10 05:15:50;;;;;;;;;;;;;;;-142.75;100.00;77428.63;5071477;28;19923;-68
2022/10/10 05:18:15;;;;;;;;;;;;;;;-142.75;100.00;77428.63;5071256;28;19924;-68
2022/10/10 05:20:42;;;;;;;;;;;;;;;-142.75;100.00;77428.63;5053595;28;19912;-69
2022/10/10 05:23:07;;;;;;;;;;;;;;;-142.75;100.00;77418.78;5055010;28;19912;-68
2022/10/10 05:25:33;;;;;;;;;;;;;;;-142.75;100.00;77422.72;5075075;28;19919;-68
2022/10/10 05:27:58;;;;;;;;;;;;;;;-142.75;100.00;77422.72;5074545;28;20362;-69
2022/10/10 05:30:23;;;;;;;;;;;;;;;-142.75;100.00;77430.59;5075037;28;19912;-69
2022/10/10 05:32:48;;;;;;;;;;;;;;;-142.75;100.00;77420.75;5085926;28;19923;-68
2022/10/10 05:35:13;;;;;;;;;;;;;;;-142.75;100.00;77418.78;5095023;28;20029;-68
2022/10/10 05:37:39;;;;;;;;;;;;;;;-142.75;100.00;77424.69;5076743;28;19912;-69
2022/10/10 05:40:04;;;;;;;;;;;;;;;-142.75;100.00;77426.66;5095204;28;20381;-69
2022/10/10 05:42:29;;;;;;;;;;;;;;;-142.75;100.00;77428.63;5094939;28;19919;-69
2022/10/10 05:44:54;;;;;;;;;;;;;;;-142.75;100.00;77416.81;5095028;28;19920;-68
2022/10/10 05:47:20;;;;;;;;;;;;;;;-142.75;100.00;77416.81;5094639;28;19938;-70
2022/10/10 05:49:45;;;;;;;;;;;;;;;-142.75;100.00;77416.81;5077137;28;20500;-68
2022/10/10 05:52:10;;;;;;;;;;;;;;;-142.75;100.00;77410.91;5076805;28;20421;-69
2022/10/10 05:54:35;;;;;;;;;;;;;;;-142.75;100.00;77420.75;5094960;28;20416;-69
2022/10/10 05:57:00;;;;;;;;;;;;;;;-142.75;100.00;77422.72;5094470;28;20010;-68
2022/10/10 05:59:27;;;;;;;;;;;;;;;-142.75;100.00;77420.75;5077114;28;20425;-68
2022/10/10 06:01:52;;;;;;;;;;;;;;;-142.75;100.00;77418.78;5088119;28;19920;-67
2022/10/10 06:04:17;;;;;;;;;;;;;;;-142.75;100.00;77412.88;5075974;28;20377;-68
2022/10/10 06:06:43;;;;;;;;;;;;;;;-142.75;100.00;77408.94;5074885;28;19920;-68
2022/10/10 06:09:08;;;;;;;;;;;;;;;-142.75;100.00;77395.16;5074346;28;19912;-68
2022/10/10 06:11:33;;;;;;;;;;;;;;;-142.75;100.00;77393.19;5074314;28;20297;-70
2022/10/10 06:13:59;;;;;;;;;;;;;;;-142.75;100.00;77414.84;5078034;28;19923;-69
2022/10/10 06:16:25;;;;;;;;;;;;;;;-142.75;100.00;77403.03;5094061;28;19916;-69
2022/10/10 06:18:51;;;;;;;;;;;;;;;-142.75;100.00;77401.06;5076026;28;19919;-69
2022/10/10 06:21:16;;;;;;;;;;;;;;;-142.75;100.00;77393.19;5071269;28;19916;-69
2022/10/10 06:23:42;;;;;;;;;;;;;;;-142.75;100.00;77397.13;5096498;28;19912;-68
2022/10/10 06:26:07;;;;;;;;;;;;;;;-142.75;100.00;77389.25;5072353;28;19912;-69
2022/10/10 06:28:34;;;;;;;;;;;;;;;-142.75;100.00;77375.47;5084376;28;19916;-70
2022/10/10 06:31:00;;;;;;;;;;;;;;;-142.75;100.00;77373.50;5079288;28;19912;-70
2022/10/10 06:33:25;;;;;;;;;;;;;;;-142.75;100.00;77353.81;5084294;28;19928;-69
2022/10/10 06:35:51;;;;;;;;;;;;;;;-142.75;100.00;77332.16;5084947;28;20282;-68
2022/10/10 06:38:16;;;;;;;;;;;;;;;-142.75;100.00;77330.19;5086031;28;20002;-69
2022/10/10 06:40:42;;;;;;;;;;;;;;;-142.75;100.00;77314.44;5074197;28;19924;-69
2022/10/10 06:43:10;;;;;;;;;;;;;;;-142.75;100.00;77298.69;5084487;28;20007;-68
2022/10/10 06:45:37;;;;;;;;;;;;;;;-142.75;100.00;77279.00;5081781;28;20351;-70
2022/10/10 06:48:02;;;;;;;;;;;;;;;-142.75;100.00;77273.09;5088590;28;19949;-70
2022/10/10 06:50:27;;;;;;;;;;;;;;;-142.75;100.00;77267.19;5081809;28;19951;-69
2022/10/10 06:52:52;;;;;;;;;;;;;;;-142.75;100.00;77243.56;5081726;28;20323;-69
2022/10/10 06:55:17;;;;;;;;;;;;;;;-142.75;100.00;77216.00;5080894;28;19981;-69
2022/10/10 06:57:43;;;;;;;;;;;;;;;-142.75;100.00;77206.16;5069862;28;20446;-69
2022/10/10 07:00:08;;;;;;;;;;;;;;;-142.75;100.00;77182.53;5087133;28;20394;-69
2022/10/10 07:02:38;;;;;;;;;;;;;;;-142.75;100.00;77154.97;5081173;28;19955;-69
2022/10/10 07:05:04;;;;;;;;;;;;;;;-142.75;100.00;77162.84;5087746;28;19912;-69
2022/10/10 07:07:29;;;;;;;;;;;;;;;-142.75;100.00;77147.09;5080855;28;19935;-69
2022/10/10 07:09:54;;;;;;;;;;;;;;;-142.75;100.00;77164.81;5058059;28;19995;-67
2022/10/10 07:12:20;;;;;;;;;;;;;;;-142.75;100.00;77145.13;5074139;28;19916;-68
2022/10/10 07:14:46;;;;;;;;;;;;;;;-142.75;100.00;77133.31;5060281;28;19961;-71
2022/10/10 07:17:11;;;;;;;;;;;;;;;-142.75;100.00;77158.91;5079931;28;20511;-67
2022/10/10 07:19:36;;;;;;;;;;;;;;;-142.75;100.00;77162.84;5073722;28;19916;-69
2022/10/10 07:22:02;;;;;;;;;;;;;;;-142.75;100.00;77188.44;5073414;28;20283;-66
2022/10/10 07:24:27;;;;;;;;;;;;;;;-142.75;100.00;77168.75;5074641;28;19919;-67
2022/10/10 07:26:54;;;;;;;;;;;;;;;-142.75;100.00;77174.66;5055023;28;20001;-68
2022/10/10 07:29:20;;;;;;;;;;;;;;;-142.75;100.00;77153.00;5057563;28;20370;-68
2022/10/10 07:31:45;;;;;;;;;;;;;;;-142.75;100.00;77143.16;5076102;28;19920;-69
2022/10/10 07:34:10;;;;;;;;;;;;;;;-142.75;100.00;77117.56;5083268;28;19962;-69
2022/10/10 07:36:37;;;;;;;;;;;;;;;-142.75;100.00;77107.72;5083895;28;20381;-68
2022/10/10 07:39:02;;;;;;;;;;;;;;;-142.75;100.00;77088.03;5087394;28;19912;-68
2022/10/10 07:41:27;;;;;;;;;;;;;;;-142.75;100.00;77054.56;5082258;28;20046;-69
2022/10/10 07:43:53;;;;;;;;;;;;;;;-142.75;100.00;77034.88;5078806;28;19924;-68
2022/10/10 07:46:19;;;;;;;;;;;;;;;-142.75;100.00;76997.47;5054686;28;19995;-69
2022/10/10 07:48:44;;;;;;;;;;;;;;;-142.75;100.00;76954.16;5083588;28;19920;-69
2022/10/10 07:51:10;;;;;;;;;;;;;;;-142.75;100.00;76897.06;5083135;28;19912;-69
2022/10/10 07:53:35;;;;;;;;;;;;;;;-142.75;100.00;76867.53;5077622;28;20455;-69
2022/10/10 07:56:07;;;;;;;;;;;;;;;-142.75;100.00;76812.41;5080816;28;19943;-71
2022/10/10 07:58:33;;;;;;;;;;;;;;;-142.75;100.00;76798.66;5079069;28;19920;-68
2022/10/10 08:01:04;;;;;;;;;;;;;;;-142.75;100.00;76775.03;5087082;28;19912;-68
2022/10/10 08:03:29;;;;;;;;;;;;;;;-142.75;100.00;76778.97;5080141;28;19959;-69
2022/10/10 08:05:54;;;;;;;;;;;;;;;-142.75;100.00;76757.31;5062406;28;19967;-71
2022/10/10 08:08:19;;;;;;;;;;;;;;;-142.75;100.00;76814.38;5060973;28;19939;-70
2022/10/10 08:10:44;;;;;;;;;;;;;;;-142.75;100.00;76818.31;5063407;28;20332;-69
2022/10/10 08:13:10;;;;;;;;;;;;;;;-142.75;100.00;76857.69;5079662;28;20015;-68
2022/10/10 08:15:37;;;;;;;;;;;;;;;-142.75;100.00;76873.44;5053636;28;19916;-70
2022/10/10 08:18:03;;;;;;;;;;;;;;;-142.75;100.00;76904.94;5072962;28;19916;-69
2022/10/10 08:20:28;;;;;;;;;;;;;;;-142.75;100.00;76908.88;5071198;28;19917;-64
2022/10/10 08:22:53;;;;;;;;;;;;;;;-142.75;100.00;76930.53;5069730;28;19913;-69
2022/10/10 08:25:19;;;;;;;;;;;;;;;-142.75;100.00;76920.69;5073945;28;20294;-70
2022/10/10 08:27:44;;;;;;;;;;;;;;;-142.75;100.00;76920.69;5057463;28;20012;-68
2022/10/10 08:30:09;;;;;;;;;;;;;;;-142.75;100.00;76920.69;5085187;28;20002;-69
2022/10/10 08:32:35;;;;;;;;;;;;;;;-142.75;100.00;76924.63;5056370;28;19917;-69
2022/10/10 08:35:00;;;;;;;;;;;;;;;-142.75;100.00;76908.88;5085102;28;19963;-69
2022/10/10 08:37:25;;;;;;;;;;;;;;;-142.75;100.00;76928.56;5080093;28;20401;-69
2022/10/10 08:39:50;;;;;;;;;;;;;;;-142.75;100.00;76938.41;5084985;28;19919;-69
2022/10/10 08:42:21;;;;;;;;;;;;;;;-142.75;100.00;76940.38;5082276;28;20399;-70
2022/10/10 08:44:50;;;;;;;;;;;;;;;-142.75;100.00;76946.28;5087794;28;19942;-69
2022/10/10 08:47:19;;;;;;;;;;;;;;;-142.75;100.00;76942.34;5086440;28;19926;-69
2022/10/10 08:49:47;;;;;;;;;;;;;;;-142.75;100.00;76962.03;5067742;28;19946;-69
2022/10/10 08:52:31;;;;;;;;;;;;;;;-142.75;100.00;76948.25;5079623;28;19920;-68
2022/10/10 08:54:57;;;;;;;;;;;;;;;-142.75;100.00;76942.34;5078198;28;20287;-69
2022/10/10 08:57:24;;;;;;;;;;;;;;;-142.75;100.00;76940.38;5065680;28;19919;-68
2022/10/10 08:59:53;;;;;;;;;;;;;;;-142.75;100.00;76948.25;5091651;28;20373;-66
2022/10/10 09:02:18;;;;;;;;;;;;;;;-142.75;100.00;76944.31;5095801;28;20011;-69
2022/10/10 09:04:43;;;;;;;;;;;;;;;-142.75;100.00;76936.44;5095690;28;19952;-69
2022/10/10 09:07:15;;;;;;;;;;;;;;;-142.75;100.00;76950.22;5095545;28;20014;-69
2022/10/10 09:09:50;;;;;;;;;;;;;;;-142.75;100.00;76940.38;5095599;28;20392;-66
2022/10/10 09:12:34;;;;;;;;;;;;;;;-142.75;100.00;76936.44;5095414;28;19960;-69
2022/10/10 09:14:59;;;;;;;;;;;;;;;-142.75;100.00;76901.00;5076762;28;20043;-68
2022/10/10 09:17:37;;;;;;;;;;;;;;;-142.75;100.00;76857.69;5085439;28;20019;-69
2022/10/10 09:20:12;;;;;;;;;;;;;;;-142.75;100.00;76786.84;5087910;28;19916;-69
2022/10/10 09:22:48;;;;;;;;;;;;;;;-142.75;100.00;76759.28;5074562;28;19921;-68
2022/10/10 09:25:19;;;;;;;;;;;;;;;-142.75;100.00;76751.41;5082875;28;19924;-68
2022/10/10 09:27:48;;;;;;;;;;;;;;;-142.75;100.00;76731.72;5071833;28;19912;-68
2022/10/10 09:30:18;;;;;;;;;;;;;;;-142.75;100.00;76708.09;5095231;28;19915;-68
2022/10/10 09:33:04;;;;;;;;;;;;;;;-142.75;100.00;76684.47;5077173;28;20006;-67
2022/10/10 09:35:34;;;;;;;;;;;;;;;-142.75;100.00;76684.47;5084883;22;19936;-66
2022/10/10 09:38:19;;;;;;;;;;;;;;;-142.75;100.00;76686.44;5065922;28;20421;-66
2022/10/10 09:40:48;;;;;;;;;;;;;;;-142.75;100.00;76692.34;5068082;28;19916;-66
2022/10/10 09:43:18;;;;;;;;;;;;;;;-142.75;100.00;76692.34;5065226;28;19920;-66
2022/10/10 09:45:55;;;;;;;;;;;;;;;-142.75;100.00;76690.38;5049222;28;20336;-68
2022/10/10 09:48:36;;;;;;;;;;;;;;;-142.75;100.00;76688.41;5047518;28;20019;-66
2022/10/10 09:51:03;;;;;;;;;;;;;;;-142.75;100.00;76700.22;5051780;28;20060;-67
2022/10/10 09:53:28;;;;;;;;;;;;;;;-142.75;100.00;76712.03;5046344;28;19924;-66
2022/10/10 09:55:53;;;;;;;;;;;;;;;-142.75;100.00;76727.78;5032132;28;20289;-66
2022/10/10 09:58:26;;;;;;;;;;;;;;;-142.75;100.00;76731.72;5045530;28;20386;-66
2022/10/10 10:00:52;;;;;;;;;;;;;;;-142.75;100.00;76715.97;5045692;28;19928;-66
2022/10/10 10:03:19;;;;;;;;;;;;;;;-142.75;100.00;76714.00;5047674;28;19921;-66
2022/10/10 10:05:45;;;;;;;;;;;;;;;-142.75;100.00;76712.03;5047194;28;19925;-67
2022/10/10 10:08:18;;;;;;;;;;;;;;;-142.75;100.00;76712.03;5053737;28;19913;-66
2022/10/10 10:10:43;;;;;;;;;;;;;;;-142.75;100.00;76700.22;5051323;28;19928;-65
2022/10/10 10:13:13;;;;;;;;;;;;;;;-142.75;100.00;76700.22;5049315;28;19925;-65
2022/10/10 10:15:38;;;;;;;;;;;;;;;-142.75;100.00;76694.31;5045304;28;19921;-66
2022/10/10 10:18:15;;;;;;;;;;;;;;;-142.75;100.00;76668.72;5049637;28;19919;-66
2022/10/10 10:20:45;;;;;;;;;;;;;;;-142.75;100.00;76672.66;5052731;28;19913;-66
2022/10/10 10:23:24;;;;;;;;;;;;;;;-142.75;100.00;76645.09;5034471;28;20468;-66
2022/10/10 10:25:57;;;;;;;;;;;;;;;-142.75;100.00;76641.16;5052585;28;19917;-66
2022/10/10 10:28:22;;;;;;;;;;;;;;;-142.75;100.00;76623.44;5053464;28;20020;-66
2022/10/10 10:30:48;;;;;;;;;;;;;;;-142.75;100.00;76597.84;5053375;28;20008;-66
2022/10/10 10:33:13;;;;;;;;;;;;;;;-142.75;100.00;76601.78;5053300;28;20401;-66
2022/10/10 10:35:54;;;;;;;;;;;;;;;-142.75;100.00;76597.84;5053037;28;19924;-67
2022/10/10 10:38:24;;;;;;;;;;;;;;;-142.75;100.00;76597.84;5052802;28;19971;-66
2022/10/10 10:41:08;;;;;;;;;;;;;;;-142.75;100.00;76574.22;5053595;28;19916;-65
2022/10/10 10:43:33;;;;;;;;;;;;;;;-142.75;100.00;76609.66;5053568;28;19975;-66
2022/10/10 10:46:01;;;;;;;;;;;;;;;-142.75;100.00;76597.84;5053486;28;20422;-66
2022/10/10 10:48:28;;;;;;;;;;;;;;;-142.75;100.00;76617.53;5053219;28;19912;-66
2022/10/10 10:50:56;;;;;;;;;;;;;;;-142.75;100.00;76603.75;5053300;28;19924;-66
2022/10/10 10:53:24;;;;;;;;;;;;;;;-142.75;100.00;76601.78;5053430;28;19920;-66
2022/10/10 10:55:55;;;;;;;;;;;;;;;-142.75;100.00;76601.78;5053178;28;19924;-66
2022/10/10 10:58:25;;;;;;;;;;;;;;;-142.75;100.00;76603.75;5053158;28;20402;-66
2022/10/10 11:00:57;;;;;;;;;;;;;;;-142.75;100.00;76611.63;5053302;28;19912;-66
2022/10/10 11:03:31;;;;;;;;;;;;;;;-142.75;100.00;76625.41;5053212;28;20349;-66
2022/10/10 11:05:56;;;;;;;;;;;;;;;-142.75;100.00;76621.47;5051477;28;19919;-66
2022/10/10 11:08:32;;;;;;;;;;;;;;;-142.75;100.00;76621.47;5052116;28;19912;-66
2022/10/10 11:11:03;;;;;;;;;;;;;;;-142.75;100.00;76621.47;5052859;28;19959;-66
2022/10/10 11:13:37;;;;;;;;;;;;;;;-142.75;100.00;76633.28;5052367;28;19921;-67
2022/10/10 11:16:12;;;;;;;;;;;;;;;-142.75;100.00;76647.06;5052871;28;20375;-66
2022/10/10 11:18:42;;;;;;;;;;;;;;;-142.75;100.00;76660.84;5052652;28;19913;-66
2022/10/10 11:21:09;;;;;;;;;;;;;;;-142.75;100.00;76664.78;5051091;28;19917;-66
2022/10/10 11:24:03;;;;;;;;;;;;;;;-142.75;100.00;76654.94;5052123;28;19913;-66
2022/10/10 11:26:30;;;;;;;;;;;;;;;-142.75;100.00;76651.00;5032805;28;19982;-66
2022/10/10 11:28:57;;;;;;;;;;;;;;;-142.75;100.00;76664.78;5053545;28;19913;-66
2022/10/10 11:31:26;;;;;;;;;;;;;;;-142.75;100.00;76666.75;5056343;28;19916;-66
2022/10/10 11:33:55;;;;;;;;;;;;;;;-142.75;100.00;76674.63;5052112;28;20011;-66
2022/10/10 11:36:22;;;;;;;;;;;;;;;-142.75;100.00;76680.53;5052237;28;19963;-66
2022/10/10 11:38:51;;;;;;;;;;;;;;;-142.75;100.00;76666.75;5051883;28;20333;-66
2022/10/10 11:41:21;;;;;;;;;;;;;;;-142.75;100.00;76676.59;5052257;28;20003;-66
2022/10/10 11:43:46;;;;;;;;;;;;;;;-142.75;100.00;76688.41;5052541;28;19920;-66
2022/10/10 11:46:20;;;;;;;;;;;;;;;-142.75;100.00;76694.31;5052541;28;19912;-66
2022/10/10 11:48:52;;;;;;;;;;;;;;;-142.75;100.00;76700.22;5052266;28;19913;-67
2022/10/10 11:51:24;;;;;;;;;;;;;;;-142.75;100.00;76710.06;5052343;28;19912;-66
2022/10/10 11:53:51;;;;;;;;;;;;;;;-142.75;100.00;76708.09;5052374;28;20298;-66
2022/10/10 11:56:16;;;;;;;;;;;;;;;-142.75;100.00;76723.84;5052175;28;19917;-66
2022/10/10 11:58:44;;;;;;;;;;;;;;;-142.75;100.00;76731.72;5052003;28;19912;-68
2022/10/10 12:01:09;;;;;;;;;;;;;;;-142.75;100.00;76739.59;5052326;28;19974;-66
2022/10/10 12:03:34;;;;;;;;;;;;;;;-142.75;100.00;76739.59;5055441;28;20387;-66
2022/10/10 12:06:12;;;;;;;;;;;;;;;-142.75;100.00;76749.44;5051607;28;19924;-67
2022/10/10 12:08:42;;;;;;;;;;;;;;;-142.75;100.00;76763.22;5046570;28;19917;-73
2022/10/10 12:11:10;;;;;;;;;;;;;;;-142.75;100.00;76777.00;5057232;28;20400;-66
2022/10/10 12:13:43;;;;;;;;;;;;;;;-142.75;100.00;76802.56;5042501;28;19928;-67
2022/10/10 12:16:13;;;;;;;;;;;;;;;-142.75;100.00;76830.13;5050307;28;19971;-67
2022/10/10 12:18:38;;;;;;;;;;;;;;;-142.75;100.00;76826.19;5051918;28;20049;-67
2022/10/10 12:21:04;;;;;;;;;;;;;;;-142.75;100.00;76845.88;5034071;28;20554;-67